Time;durP1;ratioP1;P1;durP2;ratioP2;P2;SDS_P1;SDS_P2;PMS_P1;PMS_P2;Temp;Humidity;BMP_temperature;BMP_pressure;BME280_temperature;BME280_humidity;BME280_pressure;Samples;Min_cycle;Max_cycle;Signal;HPM_P1;HPM_P2
2022/04/14 00:04:20;;;;;;;5.68;3.70;;;;;;;12.60;75.33;100797.81;8601819;33;20455;-73
2022/04/14 00:09:23;;;;;;;5.15;3.00;;;;;;;12.48;76.01;100803.34;8605056;33;20392;-73
2022/04/14 00:14:28;;;;;;;4.05;2.72;;;;;;;12.53;75.94;100803.84;8604928;33;20430;-74
2022/04/14 00:19:31;;;;;;;5.03;3.03;;;;;;;12.47;76.44;100809.75;8604396;33;20151;-75
2022/04/14 00:24:34;;;;;;;4.55;2.78;;;;;;;12.41;76.85;100804.88;8602292;33;20473;-75
2022/04/14 00:29:39;;;;;;;4.47;2.97;;;;;;;12.26;77.86;100797.03;8599830;33;20458;-74
2022/04/14 00:34:42;;;;;;;3.90;2.90;;;;;;;12.36;78.37;100789.91;8598500;33;20209;-74
2022/04/14 00:39:45;;;;;;;4.65;3.42;;;;;;;12.40;77.43;100793.22;8596691;33;20210;-74
2022/04/14 00:44:50;;;;;;;3.30;2.72;;;;;;;11.98;78.31;100801.09;8598494;33;20440;-73
2022/04/14 00:49:53;;;;;;;4.68;3.42;;;;;;;11.86;79.87;100797.53;8598190;33;20195;-74
2022/04/14 00:54:56;;;;;;;7.05;3.65;;;;;;;11.80;81.18;100805.28;8598383;33;20421;-74
2022/04/14 01:00:01;;;;;;;6.18;3.20;;;;;;;11.78;81.75;100800.00;8601425;33;20518;-74
2022/04/14 01:05:05;;;;;;;5.70;3.30;;;;;;;11.71;82.64;100804.13;8601966;33;20469;-74
2022/04/14 01:10:08;;;;;;;5.25;3.88;;;;;;;11.79;83.73;100801.69;8574596;33;20478;-74
2022/04/14 01:15:14;;;;;;;4.68;3.30;;;;;;;11.63;83.55;100812.84;8596593;33;20470;-74
2022/04/14 01:20:18;;;;;;;6.50;4.10;;;;;;;11.57;84.77;100810.59;8598080;33;20455;-74
2022/04/14 01:25:24;;;;;;;3.78;2.85;;;;;;;11.33;84.82;100796.41;8600358;33;20136;-74
2022/04/14 01:30:27;;;;;;;7.35;3.13;;;;;;;11.08;86.39;100805.47;8601713;33;20561;-74
2022/04/14 01:35:30;;;;;;;4.90;2.70;;;;;;;11.46;85.96;100807.91;8601231;33;20244;-74
2022/04/14 01:40:34;;;;;;;5.20;2.78;;;;;;;11.38;86.30;100803.16;8601752;33;20193;-74
2022/04/14 01:45:37;;;;;;;4.53;2.75;;;;;;;11.32;86.60;100803.59;8602159;33;20424;-74
2022/04/14 01:50:41;;;;;;;3.13;2.83;;;;;;;11.01;87.25;100818.53;8599824;33;20395;-74
2022/04/14 01:55:45;;;;;;;7.10;2.92;;;;;;;11.13;87.46;100814.91;8597879;33;20204;-74
2022/04/14 02:00:48;;;;;;;4.20;3.30;;;;;;;10.98;88.01;100808.84;8598116;33;20741;-74
2022/04/14 02:05:51;;;;;;;3.10;2.53;;;;;;;10.97;87.87;100809.84;8596834;33;21062;-74
2022/04/14 02:10:56;;;;;;;3.88;2.78;;;;;;;10.64;89.27;100805.19;8602456;33;20509;-74
2022/04/14 02:15:59;;;;;;;5.22;2.97;;;;;;;11.02;89.55;100801.41;8598624;33;20415;-74
2022/04/14 02:21:02;;;;;;;4.55;2.75;;;;;;;11.11;89.45;100802.53;8604425;33;20415;-74
2022/04/14 02:26:07;;;;;;;4.85;3.10;;;;;;;11.28;89.68;100786.84;8610214;33;20409;-75
2022/04/14 02:31:10;;;;;;;4.65;3.00;;;;;;;11.23;89.75;100782.81;8608359;33;20171;-75
2022/04/14 02:36:13;;;;;;;3.92;2.70;;;;;;;11.14;89.98;100775.47;8603331;33;20186;-75
2022/04/14 02:41:17;;;;;;;4.00;2.58;;;;;;;11.16;90.93;100774.38;8601480;33;20155;-74
2022/04/14 02:46:20;;;;;;;3.92;2.95;;;;;;;11.06;90.23;100774.19;8594880;33;20522;-75
2022/04/14 02:51:23;;;;;;;3.97;3.08;;;;;;;10.93;90.10;100786.00;8594783;33;20874;-74
2022/04/14 02:56:28;;;;;;;3.13;2.58;;;;;;;10.88;90.29;100791.72;8593075;33;20457;-74
2022/04/14 03:01:31;;;;;;;3.55;2.45;;;;;;;10.73;89.68;100798.25;8591891;33;20140;-74
2022/04/14 03:06:34;;;;;;;4.32;2.70;;;;;;;10.71;90.35;100787.63;8591614;33;20462;-74
2022/04/14 03:11:39;;;;;;;7.35;2.78;;;;;;;10.88;90.97;100767.53;8594055;33;20480;-74
2022/04/14 03:16:42;;;;;;;3.75;2.47;;;;;;;10.77;89.86;100781.78;8591926;33;20890;-74
2022/04/14 03:21:46;;;;;;;3.35;2.63;;;;;;;10.81;90.51;100771.66;8598277;33;20181;-74
2022/04/14 03:26:50;;;;;;;5.65;2.88;;;;;;;10.79;90.64;100746.75;8598403;33;20191;-74
2022/04/14 03:31:53;;;;;;;3.72;2.70;;;;;;;10.87;91.06;100762.28;8609194;33;20504;-74
2022/04/14 03:36:57;;;;;;;5.00;3.20;;;;;;;10.60;89.18;100776.81;8615666;33;20151;-74
2022/04/14 03:42:06;;;;;;;3.50;3.15;;;;;;;10.55;89.81;100770.94;8617051;33;21022;-74
2022/04/14 03:47:09;;;;;;;4.43;3.42;;;;;;;10.37;90.19;100774.03;8617019;33;21818;-74
2022/04/14 03:52:12;;;;;;;4.65;3.13;;;;;;;10.46;90.94;100767.13;8612866;33;20413;-75
2022/04/14 03:57:17;;;;;;;5.13;3.75;;;;;;;10.66;91.05;100762.06;8605450;33;20445;-74
2022/04/14 04:02:20;;;;;;;4.93;3.22;;;;;;;10.86;90.66;100758.75;8605033;33;20224;-74
2022/04/14 04:07:23;;;;;;;5.30;3.67;;;;;;;10.76;89.49;100758.56;8600161;33;21996;-74
2022/04/14 04:12:28;;;;;;;9.18;3.50;;;;;;;10.62;88.89;100766.81;8599490;33;20411;-74
2022/04/14 04:17:31;;;;;;;5.25;3.40;;;;;;;10.48;88.57;100770.53;8598198;33;20449;-74
2022/04/14 04:22:34;;;;;;;4.63;3.50;;;;;;;10.46;88.90;100777.84;8602019;33;20437;-74
2022/04/14 04:27:39;;;;;;;6.18;3.30;;;;;;;10.41;88.54;100787.22;8597784;33;20413;-74
2022/04/14 04:32:43;;;;;;;3.97;3.42;;;;;;;10.49;88.56;100792.88;8598013;33;20434;-75
2022/04/14 04:37:46;;;;;;;5.07;3.92;;;;;;;10.59;88.56;100797.47;8595679;33;20158;-74
2022/04/14 04:42:50;;;;;;;5.38;3.92;;;;;;;10.68;89.08;100797.75;8597682;33;20482;-74
2022/04/14 04:47:53;;;;;;;6.10;3.63;;;;;;;10.61;87.42;100806.28;8599333;33;20516;-74
2022/04/14 04:52:56;;;;;;;4.85;3.63;;;;;;;10.57;87.63;100806.59;8599706;33;20422;-75
2022/04/14 04:58:01;;;;;;;3.83;3.00;;;;;;;10.51;87.35;100807.91;8595466;33;20239;-74
2022/04/14 05:03:09;;;;;;;7.03;3.92;;;;;;;10.56;87.72;100810.28;8587673;33;20980;-74
2022/04/14 05:08:12;;;;;;;4.28;3.55;;;;;;;10.51;87.89;100825.88;8588921;33;20143;-74
2022/04/14 05:13:16;;;;;;;5.53;3.97;;;;;;;10.70;88.52;100836.97;8595591;33;20147;-74
2022/04/14 05:18:19;;;;;;;6.82;4.65;;;;;;;10.74;87.67;100833.06;8602087;33;20422;-74
2022/04/14 05:23:22;;;;;;;6.40;4.25;;;;;;;10.92;87.73;100838.03;8609575;33;20431;-74
2022/04/14 05:28:27;;;;;;;6.47;4.88;;;;;;;10.83;87.32;100840.47;8600414;33;20421;-74
2022/04/14 05:33:30;;;;;;;5.60;3.85;;;;;;;10.83;85.75;100847.63;8595506;33;20210;-74
2022/04/14 05:38:33;;;;;;;5.22;3.72;;;;;;;10.74;85.88;100861.75;8595913;33;20144;-74
2022/04/14 05:43:37;;;;;;;4.95;3.83;;;;;;;10.77;86.43;100867.75;8596058;33;20151;-74
2022/04/14 05:48:40;;;;;;;6.95;4.32;;;;;;;10.70;86.01;100863.84;8594422;33;20421;-74
2022/04/14 05:53:44;;;;;;;7.13;4.03;;;;;;;10.80;86.21;100874.75;8595114;33;20393;-74
2022/04/14 05:58:48;;;;;;;6.13;4.30;;;;;;;10.91;85.51;100866.72;8599148;33;20174;-73
2022/04/14 06:03:51;;;;;;;7.25;4.50;;;;;;;10.91;84.76;100860.50;8600111;33;21114;-74
2022/04/14 06:08:54;;;;;;;8.18;4.95;;;;;;;10.95;84.60;100853.94;8600537;33;20994;-74
2022/04/14 06:13:58;;;;;;;8.95;4.72;;;;;;;10.84;84.63;100863.66;8605167;33;20506;-74
2022/04/14 06:19:01;;;;;;;7.55;5.18;;;;;;;10.70;85.49;100877.28;8606391;33;20428;-74
2022/04/14 06:24:06;;;;;;;8.55;5.30;;;;;;;10.88;85.46;100879.56;8607797;33;20513;-74
2022/04/14 06:29:11;;;;;;;9.85;4.53;;;;;;;10.86;84.77;100877.00;8606500;33;20456;-74
2022/04/14 06:34:14;;;;;;;10.75;5.00;;;;;;;10.96;84.96;100877.16;8606720;33;20193;-74
2022/04/14 06:39:17;;;;;;;6.22;5.00;;;;;;;11.02;84.70;100882.91;8606270;33;20241;-74
2022/04/14 06:44:21;;;;;;;10.02;4.93;;;;;;;11.19;84.43;100883.50;8607092;33;20253;-74
2022/04/14 06:49:24;;;;;;;9.57;5.38;;;;;;;11.31;83.29;100881.72;8604673;33;20438;-74
2022/04/14 06:54:27;;;;;;;9.15;5.70;;;;;;;11.47;83.21;100882.28;8601132;33;21242;-74
2022/04/14 06:59:32;;;;;;;10.25;5.80;;;;;;;11.85;82.86;100875.75;8595252;33;21089;-74
2022/04/14 07:04:35;;;;;;;11.73;6.50;;;;;;;11.84;80.99;100879.41;8569456;33;21618;-74
2022/04/14 07:09:38;;;;;;;11.82;7.22;;;;;;;11.94;81.02;100878.56;8596161;33;20253;-74
2022/04/14 07:14:42;;;;;;;13.95;7.15;;;;;;;12.07;81.26;100878.44;8598483;33;20197;-74
2022/04/14 07:19:46;;;;;;;12.32;7.97;;;;;;;12.09;80.05;100884.53;8597463;33;21628;-74
2022/04/14 07:24:51;;;;;;;13.27;8.50;;;;;;;12.39;80.22;100877.72;8597428;33;20498;-74
2022/04/14 07:29:56;;;;;;;17.65;10.27;;;;;;;12.46;80.63;100875.41;8593071;33;20651;-74
2022/04/14 07:34:59;;;;;;;20.42;11.52;;;;;;;12.44;79.90;100880.91;8594537;33;20177;-74
2022/04/14 07:40:02;;;;;;;23.10;12.85;;;;;;;12.34;80.53;100883.50;8592185;33;20269;-74
2022/04/14 07:45:10;;;;;;;25.90;12.77;;;;;;;12.58;80.32;100891.41;8592457;33;20542;-74
2022/04/14 07:50:16;;;;;;;39.10;18.17;;;;;;;12.56;78.88;100897.91;8592577;33;20213;-74
2022/04/14 07:55:22;;;;;;;35.95;16.73;;;;;;;12.53;78.47;100888.25;8594152;33;20463;-74
2022/04/14 08:00:27;;;;;;;40.70;21.48;;;;;;;12.49;77.98;100897.56;8595638;33;20183;-74
2022/04/14 08:05:33;;;;;;;42.55;20.55;;;;;;;12.43;78.91;100889.13;8592810;33;20209;-74
2022/04/14 08:10:37;;;;;;;41.45;20.38;;;;;;;12.74;77.90;100887.47;8603674;33;20526;-74
2022/04/14 08:15:42;;;;;;;41.60;20.08;;;;;;;12.72;78.04;100886.72;8601086;33;20179;-74
2022/04/14 08:20:45;;;;;;;41.88;20.38;;;;;;;13.13;76.69;100885.97;8595807;33;20204;-74
2022/04/14 08:25:48;;;;;;;47.90;23.05;;;;;;;13.07;76.39;100886.50;8596081;33;20487;-74
2022/04/14 08:31:13;;;;;;;48.08;23.52;;;;;;;13.30;75.97;100887.25;8596411;33;20444;-74
2022/04/14 08:36:17;;;;;;;43.40;21.98;;;;;;;13.63;74.01;100886.28;8594897;33;20425;-74
2022/04/14 08:41:22;;;;;;;46.40;23.33;;;;;;;14.01;73.63;100889.31;8601860;33;20522;-74
2022/04/14 08:46:26;;;;;;;44.58;23.90;;;;;;;14.08;73.67;100885.09;8612432;33;20151;-74
2022/04/14 08:51:35;;;;;;;45.20;22.77;;;;;;;14.13;72.78;100882.84;8603172;33;20409;-75
2022/04/14 08:56:39;;;;;;;40.72;21.23;;;;;;;13.72;71.91;100884.63;8597371;33;20555;-74
2022/04/14 09:01:44;;;;;;;37.85;20.58;;;;;;;13.44;73.45;100887.00;8598008;33;20987;-74
2022/04/14 09:06:48;;;;;;;41.50;22.40;;;;;;;13.75;72.39;100881.66;8596582;33;20237;-75
2022/04/14 09:11:51;;;;;;;47.22;23.88;;;;;;;13.57;72.83;100883.22;8596654;33;20685;-75
2022/04/14 09:16:56;;;;;;;37.00;18.48;;;;;;;13.52;71.31;100877.38;8602680;33;20190;-74
2022/04/14 09:22:00;;;;;;;42.22;23.33;;;;;;;13.47;72.51;100896.66;8603026;33;21010;-74
2022/04/14 09:27:03;;;;;;;48.25;24.17;;;;;;;13.47;72.04;100886.72;8601669;33;20678;-74
2022/04/14 09:32:09;;;;;;;45.05;24.35;;;;;;;13.16;72.77;100898.34;8601265;33;21000;-74
2022/04/14 09:37:15;;;;;;;44.70;23.27;;;;;;;13.42;72.29;100890.81;8602045;33;20211;-74
2022/04/14 09:42:19;;;;;;;46.90;24.90;;;;;;;13.80;69.95;100890.22;8601632;33;20427;-74
2022/04/14 09:47:40;;;;;;;32.85;17.52;;;;;;;14.19;68.13;100884.16;8603164;33;20416;-74
2022/04/14 09:52:57;;;;;;;40.03;22.33;;;;;;;15.30;66.83;100888.50;8603566;33;20131;-74
2022/04/14 09:58:10;;;;;;;39.35;21.73;;;;;;;15.59;64.24;100891.22;8614062;33;20155;-74
2022/04/14 10:03:18;;;;;;;35.65;19.92;;;;;;;15.73;61.98;100876.38;8616496;33;20446;-74
2022/04/14 10:08:22;;;;;;;33.38;18.38;;;;;;;15.98;61.66;100870.31;8616161;33;20621;-74
2022/04/14 10:13:35;;;;;;;30.13;17.00;;;;;;;17.29;57.22;100866.44;8617071;33;20444;-75
2022/04/14 10:18:40;;;;;;;27.98;15.55;;;;;;;17.66;55.89;100860.78;8615673;33;21602;-75
2022/04/14 10:23:43;;;;;;;25.55;15.10;;;;;;;17.32;56.10;100865.28;8606071;33;20691;-75
2022/04/14 10:28:47;;;;;;;21.48;12.73;;;;;;;16.29;57.51;100861.94;8609271;33;20236;-74
2022/04/14 10:33:52;;;;;;;22.02;13.57;;;;;;;17.21;56.69;100855.50;8608681;33;20144;-75
2022/04/14 10:38:56;;;;;;;22.63;14.15;;;;;;;17.41;55.30;100848.03;8601529;33;20420;-74
2022/04/14 10:44:04;;;;;;;26.55;15.00;;;;;;;18.13;53.47;100851.41;8604621;33;20433;-75
2022/04/14 10:49:13;;;;;;;20.58;12.45;;;;;;;17.16;56.12;100857.84;8602623;33;20202;-74
2022/04/14 10:54:19;;;;;;;28.13;17.20;;;;;;;17.52;56.66;100849.63;8600299;33;20414;-74
2022/04/14 10:59:45;;;;;;;24.95;15.15;;;;;;;16.95;55.36;100858.09;8599611;33;21343;-74
2022/04/14 11:04:53;;;;;;;22.05;13.43;;;;;;;17.17;55.72;100835.97;8599713;33;20678;-74
2022/04/14 11:09:59;;;;;;;30.00;16.10;;;;;;;16.66;56.77;100851.03;8601298;33;20415;-74
2022/04/14 11:15:04;;;;;;;25.42;13.30;;;;;;;16.41;57.17;100836.34;8602306;33;20188;-74
2022/04/14 11:20:21;;;;;;;17.98;8.88;;;;;;;17.49;52.26;100834.50;8597326;33;20406;-74
2022/04/14 11:25:47;;;;;;;18.98;8.82;;;;;;;18.27;51.26;100829.03;8600618;33;20470;-74
2022/04/14 11:30:52;;;;;;;16.95;10.63;;;;;;;18.47;51.52;100826.06;8599487;33;21464;-74
2022/04/14 11:36:08;;;;;;;19.45;11.48;;;;;;;18.72;50.82;100827.81;8598892;33;20410;-74
2022/04/14 11:41:34;;;;;;;18.08;10.57;;;;;;;16.72;54.91;100838.72;8599409;33;20469;-74
2022/04/14 11:46:39;;;;;;;16.00;10.00;;;;;;;17.22;53.62;100839.06;8597379;33;21267;-75
2022/04/14 11:51:47;;;;;;;14.23;8.27;;;;;;;18.36;50.93;100840.81;8597733;33;21043;-74
2022/04/14 11:56:52;;;;;;;15.82;10.13;;;;;;;19.45;47.67;100832.47;8592521;33;20333;-74
2022/04/14 12:01:55;;;;;;;14.88;9.32;;;;;;;19.01;49.50;100837.44;8591567;33;20780;-73
2022/04/14 12:07:00;;;;;;;15.93;8.48;;;;;;;19.54;46.58;100833.31;8591800;33;21914;-73
2022/04/14 12:12:12;;;;;;;15.30;9.90;;;;;;;19.88;47.52;100829.53;8593065;33;20194;-74
2022/04/14 12:17:22;;;;;;;12.75;8.27;;;;;;;18.95;48.19;100835.34;8597225;33;20434;-74
2022/04/14 12:22:29;;;;;;;16.35;9.38;;;;;;;19.17;48.31;100837.44;8601100;33;20411;-74
2022/04/14 12:27:37;;;;;;;15.17;9.90;;;;;;;19.03;48.22;100838.09;8604251;33;21054;-74
2022/04/14 12:32:42;;;;;;;13.60;8.88;;;;;;;20.72;45.86;100824.41;8603608;33;21026;-74
2022/04/14 12:37:51;;;;;;;14.52;9.13;;;;;;;19.80;46.11;100827.69;8604787;33;20228;-74
2022/04/14 12:42:55;;;;;;;16.38;9.10;;;;;;;18.52;47.35;100820.97;8604345;33;20185;-74
2022/04/14 12:47:58;;;;;;;13.68;7.75;;;;;;;18.18;48.61;100834.59;8601560;33;20212;-74
2022/04/14 12:53:02;;;;;;;17.25;11.40;;;;;;;17.27;52.50;100829.59;8601270;33;21894;-74
2022/04/14 12:58:09;;;;;;;14.98;10.15;;;;;;;17.09;52.34;100832.31;8600416;33;20411;-74
2022/04/14 13:03:16;;;;;;;13.52;8.55;;;;;;;17.21;51.68;100834.63;8607688;33;20475;-74
2022/04/14 13:08:33;;;;;;;15.20;9.10;;;;;;;17.06;53.51;100846.16;8602890;33;20289;-74
2022/04/14 13:13:36;;;;;;;18.73;10.57;;;;;;;16.50;54.59;100849.00;8604088;33;20475;-74
2022/04/14 13:18:44;;;;;;;16.65;10.48;;;;;;;16.33;54.01;100842.53;8601890;33;20449;-74
2022/04/14 13:23:48;;;;;;;21.25;10.90;;;;;;;16.67;54.73;100841.88;8603967;33;20560;-74
2022/04/14 13:28:51;;;;;;;17.83;10.52;;;;;;;16.84;54.59;100855.63;8603539;33;20464;-74
2022/04/14 13:33:54;;;;;;;16.20;10.43;;;;;;;16.85;55.51;100847.34;8611518;33;21930;-74
2022/04/14 13:38:59;;;;;;;20.10;10.68;;;;;;;16.69;56.52;100853.44;8615055;33;20923;-74
2022/04/14 13:44:02;;;;;;;20.00;10.35;;;;;;;16.61;57.11;100861.50;8616102;33;20132;-74
2022/04/14 13:49:05;;;;;;;18.75;10.75;;;;;;;16.58;57.58;100864.50;8618812;33;20139;-75
2022/04/14 13:54:09;;;;;;;17.92;10.70;;;;;;;16.28;57.10;100857.53;8621201;33;20174;-75
2022/04/14 13:59:12;;;;;;;18.70;10.65;;;;;;;16.44;57.40;100854.19;8622623;33;20552;-75
2022/04/14 14:04:15;;;;;;;18.60;11.18;;;;;;;16.73;56.43;100856.69;8627215;33;20155;-74
2022/04/14 14:09:19;;;;;;;17.88;10.68;;;;;;;16.78;57.91;100859.81;8622025;33;20179;-75
2022/04/14 14:14:24;;;;;;;18.65;10.77;;;;;;;16.76;55.66;100854.53;8618253;33;21603;-74
2022/04/14 14:19:27;;;;;;;18.35;11.27;;;;;;;17.26;55.24;100850.47;8621154;33;20232;-74
2022/04/14 14:24:31;;;;;;;17.52;10.45;;;;;;;17.92;53.07;100832.75;8619289;33;20190;-74
2022/04/14 14:29:34;;;;;;;18.43;11.60;;;;;;;17.96;52.36;100841.44;8608765;33;20416;-74
2022/04/14 14:34:37;;;;;;;21.52;11.57;;;;;;;18.13;53.30;100843.25;8619449;33;20615;-75
2022/04/14 14:39:42;;;;;;;19.63;13.07;;;;;;;19.17;50.67;100845.59;8608526;33;20419;-75
2022/04/14 14:44:45;;;;;;;12.80;8.48;;;;;;;18.49;48.50;100851.22;8607290;33;20334;-74
2022/04/14 14:49:48;;;;;;;11.45;8.32;;;;;;;17.24;52.32;100847.91;8605586;33;20187;-74
2022/04/14 14:54:52;;;;;;;14.07;8.35;;;;;;;17.53;51.01;100846.78;8607786;33;20716;-73
2022/04/14 14:59:55;;;;;;;9.75;7.72;;;;;;;17.91;50.06;100850.94;8605510;33;21014;-73
2022/04/14 15:04:58;;;;;;;14.10;7.90;;;;;;;18.00;50.67;100851.00;8607084;33;20422;-73
2022/04/14 15:10:03;;;;;;;10.55;6.10;;;;;;;17.15;51.53;100854.28;8601943;33;21049;-73
2022/04/14 15:15:07;;;;;;;9.90;6.97;;;;;;;16.87;50.08;100861.63;8602657;33;20474;-73
2022/04/14 15:20:11;;;;;;;12.52;6.50;;;;;;;16.57;50.68;100860.09;8604236;33;20472;-74
2022/04/14 15:25:16;;;;;;;13.52;7.55;;;;;;;16.61;50.89;100866.91;8603586;33;20216;-73
2022/04/14 15:30:19;;;;;;;13.73;7.22;;;;;;;16.18;53.04;100853.97;8602322;33;20925;-73
2022/04/14 15:35:22;;;;;;;8.43;6.53;;;;;;;16.28;51.27;100862.94;8603623;33;20147;-73
2022/04/14 15:40:27;;;;;;;10.73;6.80;;;;;;;16.25;51.82;100858.66;8605328;33;20578;-73
2022/04/14 15:45:30;;;;;;;12.50;7.53;;;;;;;16.54;50.77;100860.41;8606379;33;20250;-73
2022/04/14 15:50:36;;;;;;;12.15;7.22;;;;;;;16.50;52.32;100859.84;8604462;33;20179;-73
2022/04/14 15:55:44;;;;;;;11.15;7.20;;;;;;;16.55;52.24;100864.81;8601999;33;20144;-73
2022/04/14 16:00:47;;;;;;;13.75;8.43;;;;;;;15.88;52.59;100864.94;8602810;33;20202;-73
2022/04/14 16:05:50;;;;;;;12.02;7.47;;;;;;;15.87;52.76;100867.78;8603176;33;20456;-73
2022/04/14 16:16:36;;;;;;;8.55;6.80;;;;;;;15.95;53.64;100856.22;8603736;33;20195;-74
2022/04/14 16:21:40;;;;;;;8.85;6.60;;;;;;;16.22;53.89;100864.38;8605629;33;20551;-74
2022/04/14 16:26:47;;;;;;;11.60;7.95;;;;;;;16.27;52.32;100863.97;8603517;33;20508;-74
2022/04/14 16:31:51;;;;;;;11.85;7.63;;;;;;;16.46;51.47;100863.88;8595156;33;21336;-74
2022/04/14 16:36:55;;;;;;;10.82;6.90;;;;;;;16.16;51.90;100870.41;8597030;33;20417;-74
2022/04/14 16:41:59;;;;;;;10.90;6.88;;;;;;;16.15;52.88;100866.84;8597480;33;20192;-74
2022/04/14 16:47:03;;;;;;;12.25;7.10;;;;;;;15.90;52.88;100868.34;8602791;33;20404;-74
2022/04/14 16:52:07;;;;;;;9.70;7.07;;;;;;;15.74;54.00;100872.66;8600274;33;20411;-74
2022/04/14 16:57:12;;;;;;;8.30;6.07;;;;;;;15.72;53.53;100877.41;8598248;33;20151;-74
2022/04/14 17:02:15;;;;;;;9.30;6.50;;;;;;;15.34;53.79;100879.13;8600257;33;20190;-74
2022/04/14 17:07:18;;;;;;;8.98;6.07;;;;;;;15.50;54.70;100898.38;8601968;33;20613;-74
2022/04/14 17:12:26;;;;;;;9.15;6.65;;;;;;;15.78;52.73;100896.63;8605510;33;21060;-74
2022/04/14 17:17:30;;;;;;;7.13;6.18;;;;;;;16.68;51.36;100899.72;8604395;33;20557;-74
2022/04/14 17:27:55;;;;;;;6.60;5.28;;;;;;;17.02;48.72;100903.47;8617619;33;20431;-74
2022/04/14 17:33:00;;;;;;;7.25;4.78;;;;;;;17.07;48.69;100907.59;8620832;33;20901;-74
2022/04/14 17:38:04;;;;;;;6.55;4.40;;;;;;;16.76;49.14;100905.25;8620939;33;20463;-74
2022/04/14 17:43:08;;;;;;;7.32;4.70;;;;;;;16.38;50.42;100915.28;8621924;33;20190;-74
2022/04/14 17:48:12;;;;;;;8.55;5.75;;;;;;;16.07;50.87;100922.75;8622762;33;21076;-74
2022/04/14 17:53:15;;;;;;;7.10;4.25;;;;;;;15.77;51.19;100926.53;8620904;33;21644;-74
2022/04/14 17:58:19;;;;;;;6.93;4.63;;;;;;;15.50;52.37;100927.31;8622413;33;20177;-75
2022/04/14 18:03:23;;;;;;;6.93;4.35;;;;;;;15.17;53.28;100927.56;8621843;33;20528;-74
2022/04/14 18:08:26;;;;;;;7.53;4.47;;;;;;;14.99;53.67;100935.50;8620682;33;20147;-74
2022/04/14 18:13:30;;;;;;;7.00;4.32;;;;;;;14.74;54.34;100933.31;8620816;33;20196;-74
2022/04/14 18:18:34;;;;;;;6.00;4.10;;;;;;;14.60;54.58;100937.25;8622398;33;20692;-75
2022/04/14 18:23:37;;;;;;;6.57;4.32;;;;;;;14.36;55.21;100943.78;8622611;33;20140;-74
2022/04/14 18:28:42;;;;;;;6.18;4.60;;;;;;;14.26;55.71;100945.63;8624903;33;20454;-74
2022/04/14 18:33:45;;;;;;;5.38;4.28;;;;;;;14.15;56.24;100957.38;8623876;33;20201;-74
2022/04/14 18:38:48;;;;;;;8.18;4.40;;;;;;;14.02;56.80;100955.88;8607101;33;20151;-75
2022/04/14 18:43:53;;;;;;;6.07;4.55;;;;;;;13.90;56.86;100966.75;8607480;33;20420;-74
2022/04/14 18:48:56;;;;;;;6.80;4.93;;;;;;;13.82;57.05;100971.06;8607272;33;20619;-74
2022/04/14 18:53:59;;;;;;;7.28;4.85;;;;;;;13.73;57.37;100988.06;8606046;33;20147;-74
2022/04/14 18:59:04;;;;;;;5.32;4.78;;;;;;;13.66;57.65;100991.28;8605286;33;20201;-74
2022/04/14 19:04:07;;;;;;;6.60;5.00;;;;;;;13.47;58.28;100994.69;8606204;33;20154;-74
2022/04/14 19:09:11;;;;;;;11.75;6.32;;;;;;;13.42;58.05;101004.16;8605455;33;20524;-74
2022/04/14 19:14:15;;;;;;;11.95;7.18;;;;;;;13.31;59.07;100999.59;8605612;33;20843;-74
2022/04/14 19:19:18;;;;;;;14.05;8.88;;;;;;;13.24;59.02;101010.03;8606171;33;20496;-73
2022/04/14 19:24:21;;;;;;;8.95;5.95;;;;;;;13.14;59.48;101005.53;8604212;33;20406;-74
2022/04/14 19:29:26;;;;;;;10.90;5.85;;;;;;;13.05;59.90;101013.41;8606475;33;20576;-74
2022/04/14 19:34:29;;;;;;;6.65;5.65;;;;;;;13.02;59.92;101013.63;8606063;33;20167;-74
2022/04/14 19:39:34;;;;;;;7.30;5.93;;;;;;;12.96;60.04;101022.22;8601725;33;20187;-74
2022/04/14 19:44:38;;;;;;;10.32;6.13;;;;;;;12.91;60.15;101019.03;8602436;33;20429;-74
2022/04/14 19:49:44;;;;;;;9.88;6.72;;;;;;;12.80;60.07;101005.56;8604904;33;20417;-74
2022/04/14 19:54:47;;;;;;;13.13;6.78;;;;;;;12.74;59.79;101020.41;8604449;33;20139;-74
2022/04/14 19:59:51;;;;;;;8.88;5.68;;;;;;;12.65;60.20;101021.16;8604219;33;20132;-74
2022/04/14 20:04:54;;;;;;;9.23;5.85;;;;;;;12.58;60.17;101020.75;8606253;33;20426;-74
2022/04/14 20:09:57;;;;;;;7.80;6.05;;;;;;;12.43;60.58;101027.38;8606265;33;20510;-74
2022/04/14 20:15:03;;;;;;;8.20;5.35;;;;;;;12.33;61.02;101043.41;8602511;33;20441;-74
2022/04/14 20:20:08;;;;;;;12.07;6.43;;;;;;;12.12;62.75;101042.34;8601526;33;20988;-73
2022/04/14 20:25:11;;;;;;;11.98;7.68;;;;;;;12.06;64.16;101043.66;8602463;33;20418;-74
2022/04/14 20:30:17;;;;;;;12.52;8.73;;;;;;;12.03;64.62;101045.75;8603121;33;20501;-74
2022/04/14 20:35:20;;;;;;;13.45;8.30;;;;;;;12.05;64.78;101066.19;8596495;33;20615;-74
2022/04/14 20:40:23;;;;;;;11.32;7.70;;;;;;;12.03;64.79;101072.69;8594727;33;20458;-73
2022/04/14 20:45:28;;;;;;;12.75;7.90;;;;;;;11.98;65.30;101073.00;8599766;33;20479;-74
2022/04/14 20:50:31;;;;;;;15.48;8.07;;;;;;;11.83;65.96;101069.66;8598682;33;20285;-74
2022/04/14 20:55:34;;;;;;;13.10;8.35;;;;;;;11.80;66.36;101074.44;8597506;33;20353;-74
2022/04/14 21:00:38;;;;;;;16.02;9.18;;;;;;;11.68;67.12;101077.06;8597624;33;20212;-74
2022/04/14 21:05:42;;;;;;;15.40;8.88;;;;;;;11.60;67.23;101094.75;8597596;33;20416;-74
2022/04/14 21:10:46;;;;;;;16.58;9.75;;;;;;;11.52;68.16;101100.72;8596016;33;20436;-74
2022/04/14 21:15:50;;;;;;;15.10;8.70;;;;;;;11.33;68.46;101103.88;8600940;33;20403;-74
2022/04/14 21:20:53;;;;;;;14.55;8.38;;;;;;;11.22;68.64;101107.34;8601843;33;20171;-74
2022/04/14 21:25:56;;;;;;;14.07;8.65;;;;;;;11.13;69.02;101117.91;8601687;33;20718;-73
2022/04/14 21:31:00;;;;;;;13.05;7.97;;;;;;;11.11;68.73;101127.88;8603544;33;20179;-73
2022/04/14 21:36:04;;;;;;;13.07;8.73;;;;;;;11.01;69.17;101128.53;8602297;33;20454;-73
2022/04/14 21:41:08;;;;;;;13.50;7.90;;;;;;;10.86;69.09;101137.69;8601765;33;20410;-73
2022/04/14 21:46:13;;;;;;;13.80;7.70;;;;;;;10.81;68.69;101134.47;8602806;33;20159;-73
2022/04/14 21:51:19;;;;;;;12.73;6.90;;;;;;;10.71;68.57;101139.63;8602986;33;20186;-74
2022/04/14 21:56:22;;;;;;;10.48;7.43;;;;;;;10.67;68.66;101146.19;8601884;33;20437;-74
2022/04/14 22:01:26;;;;;;;8.95;6.22;;;;;;;10.67;68.58;101140.81;8602007;33;20693;-74
2022/04/14 22:06:31;;;;;;;10.55;6.72;;;;;;;10.59;68.30;101133.28;8602216;33;20160;-74
2022/04/14 22:11:34;;;;;;;9.32;6.50;;;;;;;10.55;68.58;101147.88;8602754;33;20191;-74
2022/04/14 22:16:38;;;;;;;10.35;6.50;;;;;;;10.53;68.44;101148.94;8598748;33;20193;-74
2022/04/14 22:21:41;;;;;;;10.52;6.63;;;;;;;10.45;68.67;101151.28;8608531;33;20979;-74
2022/04/14 22:26:44;;;;;;;9.25;5.85;;;;;;;10.38;68.52;101154.41;8615951;33;20460;-74
2022/04/14 22:31:49;;;;;;;9.18;5.88;;;;;;;10.34;68.72;101162.81;8611065;33;20404;-74
2022/04/14 22:36:52;;;;;;;8.10;5.68;;;;;;;10.16;69.18;101157.69;8601507;33;20195;-74
2022/04/14 22:41:55;;;;;;;10.55;6.68;;;;;;;10.08;69.45;101160.03;8604679;33;20147;-74
2022/04/14 22:46:59;;;;;;;10.65;6.28;;;;;;;10.06;69.73;101161.09;8600125;33;20617;-73
2022/04/14 22:52:03;;;;;;;10.40;6.80;;;;;;;9.82;70.62;101166.22;8601322;33;20552;-73
2022/04/14 22:57:07;;;;;;;14.13;7.75;;;;;;;9.79;70.98;101164.63;8604236;33;20922;-73
2022/04/14 23:02:11;;;;;;;15.48;7.07;;;;;;;9.64;71.25;101177.19;8604574;33;20617;-74
2022/04/14 23:07:20;;;;;;;14.82;7.78;;;;;;;9.56;71.78;101175.97;8604401;33;20154;-74
2022/04/14 23:12:23;;;;;;;10.05;7.45;;;;;;;9.49;71.86;101178.19;8603000;33;20154;-74
2022/04/14 23:17:30;;;;;;;9.82;6.35;;;;;;;9.32;72.25;101179.25;8603294;33;20167;-74
2022/04/14 23:22:33;;;;;;;8.98;5.90;;;;;;;9.12;72.34;101174.28;8575482;33;20179;-73
2022/04/14 23:27:36;;;;;;;8.43;6.07;;;;;;;9.19;72.29;101171.13;8601309;33;20147;-75
2022/04/14 23:32:41;;;;;;;11.63;6.00;;;;;;;9.24;71.78;101171.69;8606491;33;20436;-74
2022/04/14 23:37:45;;;;;;;8.95;6.10;;;;;;;9.25;71.59;101169.88;8604723;33;20552;-73